Time;durP1;ratioP1;P1;durP2;ratioP2;P2;SDS_P1;SDS_P2;PMS_P1;PMS_P2;Temp;Humidity;BMP_temperature;BMP_pressure;BME280_temperature;BME280_humidity;BME280_pressure;Samples;Min_cycle;Max_cycle;Signal;HPM_P1;HPM_P2
2022/07/31 00:01:26;;;;;;;7.60;6.90;;;14.00;99.90;;;;;;8325641;28;20781;-80
2022/07/31 00:05:27;;;;;;;7.82;6.82;;;14.00;99.90;;;;;;8325670;28;20444;-81
2022/07/31 00:09:28;;;;;;;7.63;6.45;;;13.70;99.90;;;;;;8326844;28;20049;-80
2022/07/31 00:13:29;;;;;;;6.78;6.18;;;13.60;99.90;;;;;;8325767;28;20049;-82
2022/07/31 00:17:29;;;;;;;7.93;6.90;;;13.60;99.90;;;;;;8325734;28;20037;-80
2022/07/31 00:21:30;;;;;;;7.85;7.05;;;13.70;99.90;;;;;;8324860;28;20036;-80
2022/07/31 00:25:30;;;;;;;10.32;7.45;;;13.70;99.90;;;;;;8324799;28;20037;-81
2022/07/31 00:29:31;;;;;;;9.18;6.95;;;13.70;99.90;;;;;;8325053;28;20037;-80
2022/07/31 00:33:31;;;;;;;7.57;6.80;;;13.60;99.90;;;;;;8324606;28;20029;-81
2022/07/31 00:37:35;;;;;;;8.13;7.32;;;13.60;99.90;;;;;;8326075;28;20025;-80
2022/07/31 00:41:41;;;;;;;7.95;7.10;;;13.40;99.90;;;;;;8323924;28;20553;-80
2022/07/31 00:45:42;;;;;;;9.02;7.45;;;13.30;99.90;;;;;;8324232;28;20494;-81
2022/07/31 00:49:43;;;;;;;10.25;7.93;;;13.20;99.90;;;;;;8323747;28;20030;-82
2022/07/31 00:53:44;;;;;;;9.70;7.88;;;13.20;99.90;;;;;;8325454;28;20021;-80
2022/07/31 00:57:44;;;;;;;8.27;7.43;;;13.10;99.90;;;;;;8324816;28;20079;-80
2022/07/31 01:05:48;;;;;;;10.32;7.07;;;13.20;99.90;;;;;;8355097;28;20064;-80
2022/07/31 01:09:49;;;;;;;8.23;7.40;;;13.10;99.90;;;;;;8359395;28;20090;-80
2022/07/31 01:13:56;;;;;;;9.32;8.35;;;12.90;99.90;;;;;;8356492;28;20029;-80
2022/07/31 01:17:58;;;;;;;9.48;8.10;;;12.80;99.90;;;;;;8358293;28;20033;-80
2022/07/31 01:22:07;;;;;;;10.32;9.23;;;12.80;99.90;;;;;;8357983;28;20029;-80
2022/07/31 01:26:17;;;;;;;10.23;8.82;;;12.70;99.90;;;;;;8359357;28;20082;-80
2022/07/31 01:30:18;;;;;;;8.98;8.07;;;12.80;99.90;;;;;;8358553;28;20037;-80
2022/07/31 01:34:41;;;;;;;11.57;8.88;;;12.80;99.90;;;;;;8359316;28;20044;-80
2022/07/31 01:38:46;;;;;;;9.95;8.02;;;12.70;99.90;;;;;;8351118;28;20027;-79
2022/07/31 01:42:57;;;;;;;9.85;8.68;;;12.70;99.90;;;;;;8358313;28;20072;-79
2022/07/31 01:46:58;;;;;;;9.82;8.85;;;12.60;99.90;;;;;;8359616;28;20025;-80
2022/07/31 01:51:01;;;;;;;11.25;10.13;;;12.50;99.90;;;;;;8360217;28;20060;-79
2022/07/31 01:55:03;;;;;;;11.88;9.85;;;12.50;99.90;;;;;;8360270;28;20036;-80
2022/07/31 01:59:05;;;;;;;11.13;9.15;;;12.40;99.90;;;;;;8359396;28;20392;-79
2022/07/31 02:03:08;;;;;;;12.20;8.77;;;12.40;99.90;;;;;;8364741;28;20072;-80
2022/07/31 02:07:09;;;;;;;10.52;9.52;;;12.50;99.90;;;;;;8366531;28;20480;-81
2022/07/31 02:11:11;;;;;;;13.68;10.65;;;12.40;99.90;;;;;;8364411;28;20028;-80
2022/07/31 02:15:15;;;;;;;11.85;9.63;;;12.30;99.90;;;;;;8366702;28;20052;-79
2022/07/31 02:19:18;;;;;;;11.18;9.23;;;12.30;99.90;;;;;;8364809;28;21416;-80
2022/07/31 02:23:18;;;;;;;10.52;9.45;;;12.40;99.90;;;;;;8364209;28;20028;-80
2022/07/31 02:27:19;;;;;;;12.18;9.20;;;12.30;99.90;;;;;;8365608;28;20585;-80
2022/07/31 02:31:22;;;;;;;11.05;8.95;;;12.40;99.90;;;;;;8363796;28;20021;-80
2022/07/31 02:35:24;;;;;;;10.35;9.35;;;12.30;99.90;;;;;;8364239;28;20108;-80
2022/07/31 02:39:27;;;;;;;11.43;10.00;;;12.30;99.90;;;;;;8364867;28;20075;-80
2022/07/31 02:43:30;;;;;;;12.00;10.85;;;12.30;99.90;;;;;;8364589;28;20091;-81
2022/07/31 02:47:31;;;;;;;11.40;10.07;;;12.20;99.90;;;;;;8363847;28;20112;-80
2022/07/31 02:51:34;;;;;;;11.00;9.90;;;12.10;99.90;;;;;;8363354;28;20391;-80
2022/07/31 02:55:35;;;;;;;12.52;10.50;;;12.10;99.90;;;;;;8363216;28;20025;-79
2022/07/31 02:59:37;;;;;;;12.25;11.05;;;12.20;99.90;;;;;;8362097;28;20519;-80
2022/07/31 03:03:37;;;;;;;13.48;11.10;;;12.20;99.90;;;;;;8362931;28;20032;-80
2022/07/31 03:07:38;;;;;;;11.30;10.20;;;12.20;99.90;;;;;;8363007;28;20052;-80
2022/07/31 03:11:38;;;;;;;11.27;10.18;;;12.30;99.90;;;;;;8355420;28;20049;-80
2022/07/31 03:15:40;;;;;;;11.25;10.18;;;12.50;99.90;;;;;;8363951;28;20031;-80
2022/07/31 03:19:40;;;;;;;10.65;9.55;;;12.50;99.90;;;;;;8360294;28;20045;-79
2022/07/31 03:23:41;;;;;;;11.23;10.07;;;12.60;99.90;;;;;;8361265;28;20029;-79
2022/07/31 03:27:42;;;;;;;11.23;9.52;;;12.60;99.90;;;;;;8362343;28;20021;-79
2022/07/31 03:31:42;;;;;;;11.52;10.32;;;12.70;99.90;;;;;;8360661;28;20044;-80
2022/07/31 03:35:43;;;;;;;10.95;9.93;;;12.70;99.90;;;;;;8361593;28;20029;-80
2022/07/31 03:39:43;;;;;;;11.05;9.95;;;12.70;99.90;;;;;;8361823;28;20092;-80
2022/07/31 03:43:45;;;;;;;11.55;10.38;;;12.80;99.90;;;;;;8361029;28;20374;-80
2022/07/31 03:47:46;;;;;;;10.82;9.73;;;12.80;99.90;;;;;;8362052;28;20036;-80
2022/07/31 03:51:47;;;;;;;13.57;9.57;;;13.00;99.90;;;;;;8360713;28;20032;-79
2022/07/31 03:55:48;;;;;;;11.52;10.05;;;13.10;99.90;;;;;;8360911;28;20025;-79
2022/07/31 03:59:49;;;;;;;12.77;9.43;;;13.20;99.90;;;;;;8360233;28;20029;-80
2022/07/31 04:03:57;;;;;;;11.32;10.13;;;13.20;99.90;;;;;;8360551;28;20488;-79
2022/07/31 04:07:58;;;;;;;11.13;9.95;;;13.40;99.90;;;;;;8357194;28;20032;-80
2022/07/31 04:11:59;;;;;;;10.30;8.68;;;13.40;99.90;;;;;;8361242;28;20032;-80
2022/07/31 04:15:59;;;;;;;9.18;8.27;;;13.60;99.90;;;;;;8360276;28;20032;-79
2022/07/31 04:20:00;;;;;;;11.18;8.98;;;13.70;99.90;;;;;;8360864;28;20067;-80
2022/07/31 04:24:00;;;;;;;9.25;8.40;;;13.90;99.90;;;;;;8360782;28;20025;-80
2022/07/31 04:28:01;;;;;;;8.65;7.85;;;14.10;99.90;;;;;;8360988;28;20032;-81
2022/07/31 04:32:02;;;;;;;9.32;7.95;;;14.20;99.90;;;;;;8360063;28;20036;-80
2022/07/31 04:36:03;;;;;;;9.02;7.40;;;14.20;99.90;;;;;;8360839;28;20025;-80
2022/07/31 04:40:04;;;;;;;8.77;7.57;;;14.30;99.90;;;;;;8359253;28;20029;-79
2022/07/31 04:44:05;;;;;;;9.20;7.65;;;14.50;99.90;;;;;;8359895;28;20500;-81
2022/07/31 04:48:05;;;;;;;10.82;8.65;;;14.50;99.90;;;;;;8360390;28;20060;-80
2022/07/31 04:52:06;;;;;;;11.05;7.43;;;14.60;99.90;;;;;;8359170;28;20446;-80
2022/07/31 05:00:25;;;;;;;8.40;6.20;;;14.90;99.90;;;;;;8359958;28;20117;-80
2022/07/31 05:04:27;;;;;;;7.50;6.70;;;15.10;99.90;;;;;;8358859;28;20029;-80
2022/07/31 05:08:27;;;;;;;9.38;6.55;;;15.40;99.90;;;;;;8359412;28;20666;-81
2022/07/31 05:12:28;;;;;;;6.07;5.55;;;15.70;99.90;;;;;;8358614;28;20037;-80
2022/07/31 05:16:29;;;;;;;7.10;6.00;;;16.10;99.90;;;;;;8358634;28;20595;-80
2022/07/31 05:20:30;;;;;;;6.63;5.75;;;16.30;99.90;;;;;;8358494;28;20021;-80
2022/07/31 05:24:31;;;;;;;7.18;6.38;;;16.90;99.90;;;;;;8358983;28;20040;-80
2022/07/31 05:28:31;;;;;;;7.43;5.50;;;17.20;99.90;;;;;;8358700;28;20021;-79
2022/07/31 05:32:32;;;;;;;7.78;5.35;;;17.30;99.90;;;;;;8358101;28;20027;-80
2022/07/31 05:36:32;;;;;;;7.22;5.55;;;17.00;99.90;;;;;;8363387;28;20025;-80
2022/07/31 05:40:33;;;;;;;5.80;5.30;;;16.80;99.90;;;;;;8365111;28;20021;-79
2022/07/31 05:44:33;;;;;;;5.53;5.03;;;16.90;99.90;;;;;;8365134;28;20036;-80
2022/07/31 05:48:34;;;;;;;5.47;4.97;;;17.30;99.90;;;;;;8365633;28;20029;-81
2022/07/31 05:52:34;;;;;;;5.78;4.55;;;17.50;99.90;;;;;;8364853;28;20116;-80
2022/07/31 05:56:35;;;;;;;5.97;4.15;;;17.90;99.90;;;;;;8364572;28;20396;-80
2022/07/31 06:00:36;;;;;;;7.13;4.70;;;18.10;99.90;;;;;;8363450;28;20052;-80
2022/07/31 06:04:37;;;;;;;6.30;4.35;;;18.40;99.90;;;;;;8364124;28;20029;-81
2022/07/31 06:08:37;;;;;;;5.43;4.25;;;18.80;99.90;;;;;;8364793;28;20523;-80
2022/07/31 06:12:38;;;;;;;4.38;3.97;;;19.10;99.90;;;;;;8363082;28;20029;-81
2022/07/31 06:16:39;;;;;;;4.68;4.20;;;19.30;99.90;;;;;;8361379;28;20112;-81
2022/07/31 06:20:39;;;;;;;4.90;3.78;;;19.70;99.90;;;;;;8360713;28;20025;-80
2022/07/31 06:24:40;;;;;;;6.43;4.38;;;20.10;99.90;;;;;;8361942;28;20064;-80
2022/07/31 06:28:40;;;;;;;4.88;3.97;;;20.50;99.90;;;;;;8355284;28;20017;-81
2022/07/31 06:32:41;;;;;;;4.82;4.00;;;21.20;99.90;;;;;;8362761;28;20029;-81
2022/07/31 06:36:41;;;;;;;5.07;3.55;;;21.60;99.90;;;;;;8361476;28;20057;-81
2022/07/31 06:40:42;;;;;;;4.65;4.00;;;22.20;99.90;;;;;;8360651;28;20388;-81
2022/07/31 06:44:42;;;;;;;5.10;3.90;;;23.00;99.90;;;;;;8361369;28;20140;-81
2022/07/31 06:48:43;;;;;;;3.72;3.15;;;23.30;99.90;;;;;;8358779;28;20017;-82
2022/07/31 06:52:44;;;;;;;5.07;2.83;;;22.60;99.90;;;;;;8358180;28;20263;-81
2022/07/31 06:56:44;;;;;;;4.85;3.17;;;22.20;99.90;;;;;;8359003;28;20091;-82
2022/07/31 07:00:45;;;;;;;3.35;2.88;;;23.10;99.90;;;;;;8357759;28;20417;-82
2022/07/31 07:04:45;;;;;;;3.08;2.67;;;25.00;99.90;;;;;;8359564;28;20064;-82
2022/07/31 07:08:46;;;;;;;4.60;2.33;;;25.10;99.90;;;;;;8358612;28;20036;-82
2022/07/31 07:12:46;;;;;;;5.30;2.42;;;26.00;99.90;;;;;;8358129;28;20064;-82
2022/07/31 07:16:47;;;;;;;2.58;2.13;;;26.30;99.90;;;;;;8357336;28;20236;-82
2022/07/31 07:20:48;;;;;;;6.35;2.13;;;26.90;99.90;;;;;;8353196;28;20151;-82
2022/07/31 07:24:50;;;;;;;3.80;2.63;;;26.90;99.90;;;;;;8356822;28;20048;-82
2022/07/31 07:28:50;;;;;;;3.67;2.00;;;27.40;99.90;;;;;;8356198;28;20032;-82
2022/07/31 07:32:51;;;;;;;3.20;1.73;;;28.60;99.90;;;;;;8356931;28;20040;-82
2022/07/31 07:36:52;;;;;;;4.95;1.75;;;27.80;98.30;;;;;;8356301;28;20036;-82
2022/07/31 07:40:52;;;;;;;5.72;2.00;;;28.00;98.30;;;;;;8357004;28;20456;-82
2022/07/31 07:44:53;;;;;;;3.35;1.73;;;28.30;95.90;;;;;;8357172;28;20033;-82
2022/07/31 07:48:53;;;;;;;3.38;1.90;;;27.60;95.90;;;;;;8356708;28;20604;-82
2022/07/31 07:52:54;;;;;;;3.60;1.90;;;26.80;96.40;;;;;;8357904;28;20035;-82
2022/07/31 07:56:55;;;;;;;2.95;1.92;;;25.90;98.90;;;;;;8359708;28;20036;-82
2022/07/31 08:00:55;;;;;;;18.73;3.35;;;25.40;99.40;;;;;;8358919;28;20032;-80
2022/07/31 08:04:56;;;;;;;3.40;1.90;;;25.80;99.90;;;;;;8358485;28;20040;-80
2022/07/31 08:08:57;;;;;;;2.97;1.60;;;26.70;99.40;;;;;;8357958;28;20079;-81
2022/07/31 08:12:57;;;;;;;2.42;1.48;;;27.10;97.90;;;;;;8358291;28;20029;-82
2022/07/31 08:16:58;;;;;;;2.40;1.48;;;26.90;98.30;;;;;;8356490;28;20159;-82
2022/07/31 08:20:58;;;;;;;1.80;1.50;;;27.00;96.50;;;;;;8356259;28;20043;-82
2022/07/31 08:24:59;;;;;;;2.25;1.70;;;26.50;96.90;;;;;;8357414;28;20445;-81
2022/07/31 08:29:01;;;;;;;1.83;1.48;;;26.40;98.20;;;;;;8353806;28;20519;-81
2022/07/31 08:33:01;;;;;;;1.95;1.50;;;26.30;97.00;;;;;;8349116;28;20025;-81
2022/07/31 08:37:03;;;;;;;6.72;1.58;;;26.20;95.30;;;;;;8355194;28;20523;-81
2022/07/31 08:41:04;;;;;;;2.53;1.63;;;25.80;96.20;;;;;;8358208;28;20021;-82
2022/07/31 08:45:08;;;;;;;1.85;1.40;;;26.30;96.50;;;;;;8359202;28;20075;-82
2022/07/31 08:49:10;;;;;;;3.72;1.40;;;27.50;93.00;;;;;;8358832;28;20040;-81
2022/07/31 08:53:14;;;;;;;1.73;1.30;;;28.40;95.10;;;;;;8357930;28;20029;-81
2022/07/31 08:57:15;;;;;;;4.57;1.27;;;28.20;90.40;;;;;;8359595;28;20017;-82
2022/07/31 09:01:16;;;;;;;4.68;1.42;;;27.80;91.80;;;;;;8355340;28;20021;-82
2022/07/31 09:05:19;;;;;;;1.75;1.33;;;27.70;88.90;;;;;;8353691;28;20037;-82
2022/07/31 09:09:19;;;;;;;1.98;1.40;;;27.70;89.20;;;;;;8354470;28;20060;-81
2022/07/31 09:13:20;;;;;;;2.10;1.20;;;27.50;91.50;;;;;;8366192;28;20060;-81
2022/07/31 09:17:31;;;;;;;2.78;1.20;;;27.80;89.30;;;;;;8369405;28;20074;-81
2022/07/31 09:21:42;;;;;;;1.88;1.00;;;27.90;89.30;;;;;;8369939;28;20013;-81
2022/07/31 09:26:00;;;;;;;2.22;1.20;;;27.60;89.70;;;;;;8370310;28;20025;-81
2022/07/31 09:30:01;;;;;;;1.85;1.40;;;27.30;89.80;;;;;;8369658;28;20025;-81
2022/07/31 09:34:01;;;;;;;1.98;1.20;;;27.00;89.40;;;;;;8370181;28;20048;-81
2022/07/31 09:38:02;;;;;;;1.83;1.33;;;27.30;91.30;;;;;;8371888;28;20020;-80
2022/07/31 09:42:04;;;;;;;1.20;1.10;;;27.90;91.10;;;;;;8370081;28;20119;-81
2022/07/31 09:46:06;;;;;;;2.22;1.42;;;27.80;85.80;;;;;;8370024;28;20036;-80
2022/07/31 09:50:07;;;;;;;1.33;1.02;;;27.80;84.90;;;;;;8371293;28;20587;-80
2022/07/31 09:54:19;;;;;;;1.50;1.10;;;27.90;86.20;;;;;;8371071;28;20091;-81
2022/07/31 09:58:22;;;;;;;1.70;1.27;;;27.60;83.50;;;;;;8371455;28;20374;-81
2022/07/31 10:02:26;;;;;;;2.53;1.40;;;27.50;81.90;;;;;;8369159;28;20094;-81
2022/07/31 10:06:30;;;;;;;1.40;1.30;;;27.30;86.40;;;;;;8370478;28;20043;-81
2022/07/31 10:10:31;;;;;;;3.22;1.20;;;28.10;86.60;;;;;;8369208;28;20028;-81
2022/07/31 10:14:39;;;;;;;2.38;1.17;;;28.40;82.90;;;;;;8370250;28;20037;-81
2022/07/31 10:18:44;;;;;;;2.05;1.40;;;28.60;82.50;;;;;;8369614;28;20059;-81
2022/07/31 10:22:52;;;;;;;1.20;1.10;;;28.60;79.30;;;;;;8363258;28;20111;-80
2022/07/31 10:26:56;;;;;;;1.20;1.10;;;27.60;81.30;;;;;;8365258;28;20075;-80
2022/07/31 10:30:57;;;;;;;3.25;1.20;;;27.90;83.50;;;;;;8364644;28;20021;-81
2022/07/31 10:34:59;;;;;;;2.70;1.10;;;27.90;82.90;;;;;;8363328;28;20033;-81
2022/07/31 10:39:11;;;;;;;2.67;1.17;;;27.30;86.90;;;;;;8362995;28;20120;-80
2022/07/31 10:43:17;;;;;;;1.92;1.23;;;27.50;81.30;;;;;;8363290;28;20613;-80
2022/07/31 10:47:18;;;;;;;1.10;1.00;;;28.30;80.80;;;;;;8363187;28;20017;-81
2022/07/31 10:51:21;;;;;;;1.63;1.10;;;29.70;73.80;;;;;;8363126;28;20055;-81
2022/07/31 10:55:26;;;;;;;1.67;1.00;;;30.70;74.70;;;;;;8365205;28;20021;-80
2022/07/31 10:59:27;;;;;;;1.60;1.10;;;30.60;68.40;;;;;;8362748;28;20043;-81
2022/07/31 11:03:37;;;;;;;1.95;1.10;;;30.30;72.20;;;;;;8363435;28;20032;-80
2022/07/31 11:07:40;;;;;;;0.90;0.88;;;30.30;74.70;;;;;;8363720;28;20039;-80
2022/07/31 11:11:40;;;;;;;3.55;1.20;;;31.60;64.30;;;;;;8357756;28;20040;-81
2022/07/31 11:15:41;;;;;;;1.40;1.00;;;32.70;70.00;;;;;;8363044;28;20054;-80
2022/07/31 11:19:42;;;;;;;1.55;1.02;;;33.00;61.20;;;;;;8362443;28;20032;-80
2022/07/31 11:23:43;;;;;;;1.17;1.02;;;32.40;59.60;;;;;;8362598;28;20055;-79
2022/07/31 11:27:44;;;;;;;3.42;1.20;;;31.80;57.60;;;;;;8362489;28;20089;-80
2022/07/31 11:31:44;;;;;;;3.58;1.10;;;31.70;61.50;;;;;;8362768;28;20108;-80
2022/07/31 11:35:45;;;;;;;2.00;0.93;;;32.10;59.90;;;;;;8362318;28;20025;-80
2022/07/31 11:39:46;;;;;;;1.40;0.98;;;32.10;60.80;;;;;;8361244;28;20021;-80
2022/07/31 11:43:49;;;;;;;1.88;1.00;;;33.30;57.90;;;;;;8362399;28;20127;-81
2022/07/31 11:47:50;;;;;;;1.73;1.02;;;34.60;51.80;;;;;;8362952;28;20028;-80
2022/07/31 11:51:59;;;;;;;1.33;0.90;;;32.80;58.20;;;;;;8362313;28;20064;-80
2022/07/31 11:56:00;;;;;;;1.30;0.98;;;32.80;51.30;;;;;;8361583;28;20029;-81
2022/07/31 12:00:27;;;;;;;3.13;0.93;;;30.90;59.70;;;;;;8359275;28;20551;-79
2022/07/31 12:04:29;;;;;;;2.08;1.27;;;30.90;62.80;;;;;;8360367;28;20560;-82
2022/07/31 12:08:30;;;;;;;1.95;1.30;;;30.90;59.10;;;;;;8360703;28;20027;-81
2022/07/31 12:12:31;;;;;;;3.50;1.40;;;29.90;60.80;;;;;;8357978;28;20029;-79
2022/07/31 12:16:40;;;;;;;3.50;1.40;;;30.20;65.50;;;;;;8360118;28;20021;-81
2022/07/31 12:21:01;;;;;;;1.38;1.27;;;30.00;65.40;;;;;;8349451;28;20018;-79
2022/07/31 12:25:01;;;;;;;1.15;1.02;;;29.40;63.90;;;;;;8360909;28;20063;-80
2022/07/31 12:29:09;;;;;;;1.20;1.10;;;30.10;66.10;;;;;;8359895;28;20055;-80
2022/07/31 12:33:12;;;;;;;1.98;1.27;;;29.80;61.90;;;;;;8356570;28;20037;-80
2022/07/31 12:37:14;;;;;;;2.90;1.50;;;30.40;68.80;;;;;;8356984;28;20067;-81
2022/07/31 12:41:15;;;;;;;1.55;1.20;;;32.30;58.70;;;;;;8358120;28;20381;-80
2022/07/31 12:45:16;;;;;;;2.20;1.40;;;32.60;57.50;;;;;;8357618;28;20029;-81
2022/07/31 12:49:16;;;;;;;1.90;1.48;;;33.20;61.50;;;;;;8357842;28;20392;-80
2022/07/31 12:53:17;;;;;;;4.78;1.25;;;33.60;53.60;;;;;;8357962;28;20435;-80
2022/07/31 12:57:17;;;;;;;2.15;1.38;;;33.00;59.10;;;;;;8357461;28;20538;-80
2022/07/31 13:01:18;;;;;;;2.28;1.35;;;33.50;56.80;;;;;;8360359;28;20024;-80
2022/07/31 13:05:19;;;;;;;1.80;1.20;;;31.70;57.70;;;;;;8358964;28;20025;-82
2022/07/31 13:09:20;;;;;;;1.67;1.05;;;32.50;61.80;;;;;;8352669;28;20439;-81
2022/07/31 13:13:22;;;;;;;2.67;1.45;;;35.80;55.10;;;;;;8357692;28;20029;-81
2022/07/31 13:17:22;;;;;;;4.95;1.10;;;34.40;52.40;;;;;;8357144;28;20032;-81
2022/07/31 13:21:25;;;;;;;2.17;1.30;;;34.10;55.30;;;;;;8356210;28;20373;-81
2022/07/31 13:25:29;;;;;;;1.92;1.05;;;35.90;51.20;;;;;;8356799;28;20017;-82
2022/07/31 13:29:29;;;;;;;1.75;1.27;;;36.00;51.00;;;;;;8356507;28;20115;-81
2022/07/31 13:33:30;;;;;;;1.52;1.20;;;34.60;51.70;;;;;;8358516;28;20388;-81
2022/07/31 13:37:30;;;;;;;6.32;1.45;;;33.50;54.00;;;;;;8352665;28;20029;-82
2022/07/31 13:41:33;;;;;;;1.98;1.45;;;32.30;55.60;;;;;;8356448;28;20449;-82
2022/07/31 13:45:33;;;;;;;1.63;1.30;;;31.30;58.20;;;;;;8357487;28;20028;-82
2022/07/31 13:49:34;;;;;;;1.50;1.33;;;30.60;61.00;;;;;;8355844;28;20201;-81
2022/07/31 13:53:34;;;;;;;2.75;1.40;;;31.10;61.30;;;;;;8357264;28;20021;-81
2022/07/31 13:57:35;;;;;;;1.77;1.40;;;35.30;53.00;;;;;;8360662;28;20025;-81
2022/07/31 14:01:35;;;;;;;4.40;1.17;;;37.20;49.40;;;;;;8362584;28;20045;-82
2022/07/31 14:05:36;;;;;;;2.25;1.50;;;34.70;52.70;;;;;;8364737;28;20037;-81
2022/07/31 14:09:36;;;;;;;2.58;1.50;;;34.40;54.60;;;;;;8363981;28;20070;-82
2022/07/31 14:13:37;;;;;;;1.98;1.40;;;33.90;53.80;;;;;;8371477;23;20449;-82
2022/07/31 14:17:37;;;;;;;2.88;1.67;;;35.30;53.60;;;;;;8358675;28;20072;-82
2022/07/31 14:21:38;;;;;;;1.60;1.50;;;33.80;52.90;;;;;;8361253;28;20025;-82
2022/07/31 14:25:40;;;;;;;2.80;1.70;;;32.80;55.80;;;;;;8339492;28;20091;-82
2022/07/31 14:29:40;;;;;;;2.90;1.60;;;31.70;57.20;;;;;;8326752;28;20029;-82
2022/07/31 14:33:41;;;;;;;1.95;1.30;;;31.00;61.10;;;;;;8335626;28;20065;-82
2022/07/31 14:37:41;;;;;;;3.30;1.42;;;31.40;59.20;;;;;;8333205;28;20083;-82
2022/07/31 14:41:42;;;;;;;4.60;1.70;;;34.70;56.00;;;;;;8338376;28;20081;-80
2022/07/31 14:45:43;;;;;;;1.58;1.33;;;38.10;48.90;;;;;;8333147;28;20170;-80
2022/07/31 14:49:43;;;;;;;2.30;1.23;;;38.80;46.60;;;;;;8340397;28;20017;-80
2022/07/31 14:53:45;;;;;;;2.78;1.60;;;39.40;47.20;;;;;;8325088;28;20036;-79
2022/07/31 14:57:45;;;;;;;2.17;1.67;;;38.10;45.70;;;;;;8332440;28;20095;-79
2022/07/31 15:01:46;;;;;;;1.67;1.42;;;38.00;46.30;;;;;;8329232;28;20029;-80
2022/07/31 15:05:46;;;;;;;1.60;1.33;;;38.00;47.10;;;;;;8332832;28;20091;-79
2022/07/31 15:09:47;;;;;;;1.90;1.40;;;38.50;45.80;;;;;;8337791;28;20025;-79
2022/07/31 15:13:47;;;;;;;3.30;1.55;;;39.50;43.80;;;;;;8333283;28;21118;-79
2022/07/31 15:17:48;;;;;;;2.05;1.40;;;38.80;43.40;;;;;;8330278;28;20037;-80
2022/07/31 15:21:49;;;;;;;1.92;1.25;;;38.10;45.90;;;;;;8329648;28;20025;-79
2022/07/31 15:25:49;;;;;;;3.95;1.63;;;36.50;46.00;;;;;;8330137;28;20642;-79
2022/07/31 15:29:50;;;;;;;3.45;1.40;;;33.40;51.40;;;;;;8324239;28;20045;-79
2022/07/31 15:33:50;;;;;;;2.78;1.80;;;31.90;54.60;;;;;;8334992;28;20064;-79
2022/07/31 15:37:51;;;;;;;2.25;1.50;;;30.90;56.90;;;;;;8334061;28;20402;-79
2022/07/31 15:41:51;;;;;;;3.15;1.77;;;31.00;56.80;;;;;;8328316;28;20108;-79
2022/07/31 15:45:52;;;;;;;3.17;1.70;;;31.70;54.30;;;;;;8321648;28;20025;-79
2022/07/31 15:49:52;;;;;;;2.05;1.77;;;31.30;56.60;;;;;;8325881;28;20033;-78
2022/07/31 15:53:53;;;;;;;1.95;1.60;;;30.80;58.30;;;;;;8318697;28;20055;-79
2022/07/31 15:57:54;;;;;;;3.35;1.85;;;30.30;58.50;;;;;;8347316;28;20419;-78
2022/07/31 16:01:55;;;;;;;1.70;1.60;;;29.80;58.50;;;;;;8325511;28;20018;-79
2022/07/31 16:05:55;;;;;;;1.95;1.65;;;29.20;60.30;;;;;;8318375;28;20510;-79
2022/07/31 16:09:56;;;;;;;4.55;1.85;;;29.10;62.20;;;;;;8330518;28;20485;-78
2022/07/31 16:13:56;;;;;;;2.67;1.70;;;29.10;61.50;;;;;;8330333;28;20036;-79
2022/07/31 16:17:57;;;;;;;3.47;1.60;;;28.80;60.90;;;;;;8338440;28;20504;-79
2022/07/31 16:21:57;;;;;;;2.72;1.60;;;28.50;61.80;;;;;;8338193;28;20498;-79
2022/07/31 16:25:58;;;;;;;1.77;1.63;;;28.40;64.70;;;;;;8336026;28;20063;-78
2022/07/31 16:29:58;;;;;;;7.72;1.90;;;28.30;65.00;;;;;;8324259;28;20082;-80
2022/07/31 16:34:08;;;;;;;5.53;2.05;;;28.50;66.80;;;;;;8305637;28;20067;-81
2022/07/31 16:38:08;;;;;;;2.67;1.50;;;28.90;63.20;;;;;;8318851;28;20112;-80
2022/07/31 16:42:09;;;;;;;4.40;1.65;;;29.10;63.10;;;;;;8323982;28;20039;-81
2022/07/31 16:46:10;;;;;;;4.15;1.67;;;29.10;64.80;;;;;;8342533;28;20496;-80
2022/07/31 16:50:10;;;;;;;3.22;1.92;;;28.80;61.90;;;;;;8338275;28;20087;-79
2022/07/31 16:54:11;;;;;;;3.00;1.83;;;28.50;63.30;;;;;;8316325;28;20030;-80
2022/07/31 16:58:12;;;;;;;3.78;2.00;;;28.30;65.50;;;;;;8329512;28;20021;-81
2022/07/31 17:02:15;;;;;;;2.88;1.73;;;28.30;65.50;;;;;;8322901;28;20033;-80
2022/07/31 17:06:15;;;;;;;3.03;1.80;;;28.30;66.00;;;;;;8318455;28;20170;-80
2022/07/31 17:10:16;;;;;;;2.03;1.80;;;27.90;66.40;;;;;;8321917;28;20026;-80
2022/07/31 17:14:18;;;;;;;4.65;1.98;;;27.40;67.70;;;;;;8318137;28;20111;-80
2022/07/31 17:18:23;;;;;;;2.08;1.80;;;27.40;67.90;;;;;;8327881;28;20113;-79
2022/07/31 17:22:24;;;;;;;3.05;1.67;;;27.30;68.80;;;;;;8339554;28;20037;-80
2022/07/31 17:26:25;;;;;;;2.70;1.80;;;27.10;68.50;;;;;;8325938;28;20491;-80
2022/07/31 17:30:25;;;;;;;1.75;1.50;;;26.90;69.60;;;;;;8326763;28;20033;-80
2022/07/31 17:34:26;;;;;;;3.25;1.80;;;26.70;70.70;;;;;;8331110;28;20022;-80
2022/07/31 17:38:26;;;;;;;1.83;1.63;;;26.40;71.70;;;;;;8331134;28;20075;-80
2022/07/31 17:42:27;;;;;;;2.85;2.00;;;26.10;72.30;;;;;;8329072;28;20551;-79
2022/07/31 17:46:28;;;;;;;2.83;1.80;;;25.90;72.10;;;;;;8330131;28;20026;-79
2022/07/31 17:50:28;;;;;;;3.85;1.73;;;25.70;72.90;;;;;;8347711;28;20079;-80
2022/07/31 17:54:30;;;;;;;2.92;1.60;;;25.90;74.90;;;;;;8325084;28;20025;-80
2022/07/31 17:58:30;;;;;;;2.90;1.60;;;25.80;75.80;;;;;;8333108;28;20485;-80
2022/07/31 18:02:31;;;;;;;3.92;2.03;;;25.80;74.70;;;;;;8333319;28;20024;-79
2022/07/31 18:06:32;;;;;;;3.20;1.55;;;25.90;74.10;;;;;;8331310;28;20062;-80
2022/07/31 18:10:32;;;;;;;4.20;1.83;;;25.90;73.60;;;;;;8329860;28;20068;-80
2022/07/31 18:14:33;;;;;;;2.00;1.80;;;25.70;74.00;;;;;;8328559;28;20039;-80
2022/07/31 18:18:33;;;;;;;1.95;1.75;;;25.50;75.00;;;;;;8323292;28;20036;-80
2022/07/31 18:22:34;;;;;;;4.85;1.75;;;25.30;77.50;;;;;;8319413;28;20049;-79
2022/07/31 18:26:36;;;;;;;2.22;1.85;;;25.00;79.20;;;;;;8324713;28;20112;-80
2022/07/31 18:30:39;;;;;;;4.25;1.75;;;24.90;80.20;;;;;;8324230;28;20053;-79
2022/07/31 18:34:40;;;;;;;3.70;2.10;;;24.80;81.00;;;;;;8324153;28;20511;-80
2022/07/31 18:38:40;;;;;;;3.40;1.98;;;24.40;83.00;;;;;;8322541;28;20038;-81
2022/07/31 18:42:41;;;;;;;2.22;1.90;;;24.10;84.10;;;;;;8315775;28;20433;-80
2022/07/31 18:46:41;;;;;;;2.33;2.13;;;23.90;84.80;;;;;;8325964;28;20075;-80
2022/07/31 18:50:42;;;;;;;3.33;2.00;;;23.70;87.20;;;;;;8315518;28;20363;-81
2022/07/31 18:54:43;;;;;;;3.72;2.47;;;23.50;88.50;;;;;;8324020;28;20072;-80
2022/07/31 18:58:44;;;;;;;3.80;2.20;;;23.20;90.90;;;;;;8333795;28;20041;-80
2022/07/31 19:02:44;;;;;;;5.10;2.10;;;23.00;91.70;;;;;;8322178;28;20056;-81
2022/07/31 19:06:45;;;;;;;2.33;2.00;;;22.70;92.50;;;;;;8331542;28;20093;-79
2022/07/31 19:10:47;;;;;;;2.95;1.90;;;22.60;93.80;;;;;;8324131;28;20033;-80
2022/07/31 19:14:48;;;;;;;3.72;2.03;;;22.60;94.60;;;;;;8321851;28;20128;-79
2022/07/31 19:18:49;;;;;;;4.00;2.58;;;22.30;96.50;;;;;;8320297;28;20434;-80
2022/07/31 19:22:49;;;;;;;2.63;2.20;;;22.00;97.10;;;;;;8308135;28;20052;-78
2022/07/31 19:26:50;;;;;;;3.55;2.38;;;21.90;98.10;;;;;;8322236;28;97778;-80
2022/07/31 19:30:51;;;;;;;5.20;2.50;;;21.70;99.70;;;;;;8331557;28;20037;-80
2022/07/31 19:34:52;;;;;;;4.05;2.03;;;21.50;99.90;;;;;;8332804;28;20708;-80
2022/07/31 19:38:53;;;;;;;2.65;2.22;;;21.50;99.90;;;;;;8330612;28;20025;-79
2022/07/31 19:42:55;;;;;;;6.32;2.47;;;21.50;99.90;;;;;;8333653;28;20031;-80
2022/07/31 19:46:57;;;;;;;2.88;2.53;;;21.40;99.90;;;;;;8330320;28;20029;-80
2022/07/31 19:50:57;;;;;;;3.78;2.58;;;21.20;99.90;;;;;;8334183;28;20401;-80
2022/07/31 19:54:58;;;;;;;3.85;2.38;;;20.90;99.90;;;;;;8340228;28;20067;-79
2022/07/31 19:58:59;;;;;;;3.05;2.53;;;20.80;99.90;;;;;;8337507;28;20480;-80
2022/07/31 20:02:59;;;;;;;2.92;2.30;;;20.70;99.90;;;;;;8332742;28;20035;-79
2022/07/31 20:07:00;;;;;;;4.18;2.50;;;20.60;99.90;;;;;;8330519;28;20029;-80
2022/07/31 20:11:02;;;;;;;3.97;2.40;;;20.60;99.90;;;;;;8336729;28;20493;-79
2022/07/31 20:15:03;;;;;;;6.18;2.50;;;20.50;99.90;;;;;;8325862;28;20648;-79
2022/07/31 20:19:04;;;;;;;6.18;3.00;;;20.30;99.90;;;;;;8324310;28;20040;-80
2022/07/31 20:23:05;;;;;;;3.40;2.60;;;20.10;99.90;;;;;;8355466;22;20196;-78
2022/07/31 20:27:05;;;;;;;4.00;2.70;;;19.80;99.90;;;;;;8329772;28;20032;-78
2022/07/31 20:31:07;;;;;;;3.10;2.80;;;19.60;99.90;;;;;;8333371;28;20021;-79
2022/07/31 20:35:08;;;;;;;5.05;2.70;;;19.50;99.90;;;;;;8339688;28;20048;-79
2022/07/31 20:39:08;;;;;;;5.68;2.95;;;19.40;99.90;;;;;;8351473;28;20063;-78
2022/07/31 20:43:09;;;;;;;4.28;3.15;;;19.20;99.90;;;;;;8334010;28;20028;-78
2022/07/31 20:47:09;;;;;;;4.05;3.33;;;18.90;99.90;;;;;;8344016;28;20021;-79
2022/07/31 20:51:17;;;;;;;3.75;3.00;;;18.90;99.90;;;;;;8346405;28;20025;-78
2022/07/31 20:55:18;;;;;;;6.95;3.13;;;18.70;99.90;;;;;;8340594;28;20030;-78
2022/07/31 20:59:19;;;;;;;5.07;3.33;;;18.70;99.90;;;;;;8349097;28;20024;-78
2022/07/31 21:03:20;;;;;;;6.53;3.28;;;18.60;99.90;;;;;;8336724;28;20022;-79